createdAt,value
2022-09-27T07:55:44.217Z,0.10
2022-09-27T07:58:22.484Z,0.00
2022-09-27T08:00:58.040Z,0.10
2022-09-27T08:18:53.261Z,0.10
2022-09-27T08:21:59.821Z,0.10
2022-09-27T08:31:03.612Z,0.10
2022-09-27T08:33:39.149Z,0.10
2022-09-27T08:36:12.310Z,0.00
2022-09-27T08:38:49.758Z,0.00
2022-09-27T08:44:33.075Z,0.00
2022-09-27T08:47:18.363Z,0.00
2022-09-27T08:49:53.822Z,0.08
2022-09-27T08:52:27.724Z,0.00
2022-09-27T08:55:00.059Z,0.00
2022-09-27T08:57:28.043Z,0.00
2022-09-27T09:00:02.735Z,0.03
2022-09-27T09:02:31.166Z,0.00
2022-09-27T09:05:04.057Z,0.00
2022-09-27T09:07:50.021Z,0.08
2022-09-27T09:10:50.661Z,0.00
2022-09-27T09:13:29.128Z,0.10
2022-09-27T09:16:11.718Z,0.00
2022-09-27T09:18:58.389Z,0.00
2022-09-27T09:21:48.661Z,0.08
2022-09-27T09:24:27.347Z,0.00
2022-09-27T09:27:04.573Z,0.10
2022-09-27T09:29:54.167Z,0.00
2022-09-27T09:32:34.645Z,0.00
2022-09-27T09:37:39.003Z,0.00
2022-09-27T09:40:19.124Z,0.75
2022-09-27T09:42:55.763Z,0.10
2022-09-27T09:45:28.680Z,0.00
2022-09-27T09:48:04.455Z,0.00
2022-09-27T09:50:38.631Z,0.00
2022-09-27T09:53:16.132Z,0.10
2022-09-27T09:55:49.549Z,0.00
2022-09-27T09:58:24.999Z,0.00
2022-09-27T10:01:06.434Z,0.10
2022-09-27T10:03:34.328Z,0.00
2022-09-27T10:06:02.810Z,0.00
2022-09-27T10:08:30.730Z,0.52
2022-09-27T10:11:22.881Z,0.50
2022-09-27T10:13:59.891Z,0.55
2022-09-27T10:16:29.224Z,0.70
2022-09-27T10:19:03.913Z,0.60
2022-09-27T10:21:34.861Z,0.57
2022-09-27T10:24:13.698Z,0.80
2022-09-27T10:27:03.880Z,0.60
2022-09-27T10:29:39.554Z,0.60
2022-09-27T10:34:52.285Z,0.57
2022-09-27T10:37:23.734Z,0.52
2022-09-27T10:40:25.946Z,0.50
2022-09-27T10:42:54.751Z,0.38
2022-09-27T10:45:31.673Z,0.70
2022-09-27T10:48:07.711Z,0.35
2022-09-27T10:50:59.553Z,0.40
2022-09-27T10:53:37.898Z,0.40
2022-09-27T10:56:23.121Z,0.70
2022-09-27T10:58:52.001Z,0.43
2022-09-27T11:01:23.234Z,0.60
2022-09-27T11:04:20.377Z,0.45
2022-09-27T11:06:49.761Z,0.90
2022-09-27T11:09:23.664Z,0.47
2022-09-27T11:12:07.342Z,0.40
2022-09-27T11:14:35.617Z,0.40
2022-09-27T11:17:17.737Z,0.50
2022-09-27T11:20:22.638Z,0.60
2022-09-27T11:23:19.346Z,0.40
2022-09-27T11:26:03.913Z,0.50
2022-09-27T11:28:43.266Z,0.50
2022-09-27T11:31:34.714Z,0.50
2022-09-27T11:34:33.461Z,0.60
2022-09-27T11:37:14.044Z,0.50
2022-09-27T11:39:56.211Z,0.50
2022-09-27T11:42:48.382Z,0.40
2022-09-27T11:45:50.532Z,0.57
2022-09-27T11:48:33.549Z,0.70
2022-09-27T11:51:16.677Z,0.50
2022-09-27T11:54:00.167Z,0.65
2022-09-27T11:56:41.321Z,0.65
2022-09-27T11:59:34.885Z,0.60
2022-09-27T12:02:13.510Z,0.50
2022-09-27T12:05:01.905Z,0.57
2022-09-27T12:07:42.622Z,0.60
2022-09-27T12:10:16.966Z,0.67
2022-09-27T12:12:52.035Z,0.63
2022-09-27T12:15:22.378Z,0.55
2022-09-27T12:17:53.502Z,0.82
2022-09-27T12:20:24.566Z,0.60
2022-09-27T12:23:00.639Z,0.88
2022-09-27T12:26:01.258Z,0.90
2022-09-27T12:28:40.836Z,1.00
2022-09-27T12:31:29.054Z,1.02
2022-09-27T12:34:13.356Z,0.80
2022-09-27T12:36:48.696Z,0.70
2022-09-27T12:39:23.545Z,0.40
2022-09-27T12:42:02.711Z,0.70
2022-09-27T12:44:44.784Z,0.57
2022-09-27T12:47:29.399Z,0.88
2022-09-27T12:50:04.784Z,0.70
2022-09-27T12:52:37.521Z,0.60
2022-09-27T12:55:37.401Z,0.60
2022-09-27T12:58:22.826Z,0.70
2022-09-27T13:00:59.258Z,0.70
2022-09-27T13:03:43.453Z,1.00
2022-09-27T13:06:39.014Z,0.75
2022-09-27T13:09:49.679Z,0.65
2022-09-27T13:12:23.492Z,0.50
2022-09-27T13:15:01.173Z,0.52
2022-09-27T13:17:54.464Z,0.90
2022-09-27T13:20:46.390Z,0.80
2022-09-27T13:23:57.919Z,0.63
2022-09-27T13:26:51.627Z,0.50
2022-09-27T13:29:34.053Z,0.45
2022-09-27T13:32:17.438Z,0.55
2022-09-27T13:35:20.399Z,1.17
2022-09-27T13:37:59.491Z,0.45
2022-09-27T13:40:40.875Z,0.60
2022-09-27T13:43:33.358Z,0.55
2022-09-27T13:46:09.678Z,0.50
2022-09-27T13:48:51.498Z,0.50
2022-09-27T13:51:32.553Z,0.50
2022-09-27T13:54:06.610Z,0.50
2022-09-27T13:56:56.385Z,0.40
2022-09-27T13:59:30.975Z,0.90
2022-09-27T14:02:26.601Z,0.70
2022-09-27T14:04:57.791Z,0.70
2022-09-27T14:07:32.907Z,0.75
2022-09-27T14:10:06.856Z,0.50
2022-09-27T14:12:42.350Z,0.60
2022-09-27T14:15:20.389Z,0.73
2022-09-27T14:17:49.880Z,1.10
2022-09-27T14:20:34.323Z,0.93
2022-09-27T14:23:05.121Z,0.98
2022-09-27T14:25:45.372Z,1.10
2022-09-27T14:28:26.746Z,1.48
2022-09-27T14:31:17.850Z,0.90
2022-09-27T14:34:09.282Z,0.80
2022-09-27T14:36:57.731Z,0.63
2022-09-27T14:39:32.551Z,1.08
2022-09-27T14:42:06.561Z,0.68
2022-09-27T14:44:36.145Z,0.90
2022-09-27T14:47:11.179Z,1.02
2022-09-27T14:49:49.442Z,1.08
2022-09-27T14:52:21.442Z,0.80
2022-09-27T15:04:04.588Z,0.60
2022-09-27T15:06:34.515Z,0.70
2022-09-27T15:09:02.576Z,0.70
2022-09-27T15:11:33.317Z,0.55
2022-09-27T15:14:05.603Z,0.70
2022-09-27T15:16:33.853Z,0.60
2022-09-27T15:19:03.998Z,0.60
2022-09-27T15:21:35.340Z,0.70
2022-09-27T15:24:03.626Z,0.47
2022-09-27T15:26:37.776Z,0.60
2022-09-27T15:29:06.097Z,0.70
2022-09-27T15:31:35.956Z,0.50
2022-09-27T15:34:06.090Z,0.70
2022-09-27T15:36:58.283Z,0.65
2022-09-27T15:39:32.828Z,0.70
2022-09-27T15:42:09.880Z,0.60
2022-09-27T15:44:47.671Z,0.70
2022-09-27T15:47:41.431Z,0.75
2022-09-27T15:50:35.138Z,0.70
2022-09-27T15:53:06.739Z,0.50
2022-09-27T15:55:40.551Z,0.50
2022-09-27T15:58:15.558Z,0.60
2022-09-27T16:00:52.799Z,0.90
2022-09-27T16:03:20.888Z,1.17
2022-09-27T16:05:48.699Z,0.55
2022-09-27T16:08:18.740Z,0.95
2022-09-27T16:10:51.391Z,0.80
2022-09-27T16:13:19.437Z,0.90
2022-09-27T16:15:49.282Z,0.88
2022-09-27T16:18:17.306Z,1.00
2022-09-27T16:20:45.301Z,1.05
2022-09-27T16:23:13.136Z,0.70
2022-09-27T16:25:42.254Z,0.90
2022-09-27T16:28:12.052Z,1.10
2022-09-27T16:30:39.883Z,0.80
2022-09-27T16:33:07.654Z,1.40
2022-09-27T16:35:35.437Z,2.00
2022-09-27T16:38:03.294Z,0.93
2022-09-27T16:40:32.037Z,0.93
2022-09-27T16:43:01.347Z,1.00
2022-09-27T16:45:34.126Z,0.40
2022-09-27T16:48:02.415Z,0.50
2022-09-27T16:50:47.834Z,0.32
2022-09-27T16:53:16.051Z,0.57
2022-09-27T16:55:43.829Z,0.47
2022-09-27T16:58:13.039Z,0.60
2022-09-27T17:00:42.087Z,0.60
2022-09-27T17:03:10.311Z,0.35
2022-09-27T17:05:38.088Z,0.40
2022-09-27T17:08:06.030Z,0.80
2022-09-27T17:10:35.724Z,0.50
2022-09-27T17:13:03.630Z,1.80
2022-09-27T17:15:32.955Z,0.50
2022-09-27T17:18:00.799Z,0.22
2022-09-27T17:20:28.595Z,0.43
2022-09-27T17:22:57.059Z,0.45
2022-09-27T17:25:24.921Z,0.35
2022-09-27T17:27:52.719Z,0.88
2022-09-27T17:30:20.949Z,0.30
2022-09-27T17:32:50.033Z,0.70
2022-09-27T17:35:18.060Z,0.63
2022-09-27T17:37:46.187Z,0.60
2022-09-27T17:40:14.498Z,0.50
2022-09-27T17:42:42.350Z,0.80
2022-09-27T17:45:10.936Z,0.60
2022-09-27T17:47:56.335Z,0.70
2022-09-27T17:50:25.485Z,0.52
2022-09-27T17:52:53.779Z,1.50
2022-09-27T17:55:22.461Z,2.03
2022-09-27T17:57:51.891Z,0.90
2022-09-27T18:00:20.631Z,1.08
2022-09-27T18:02:48.841Z,0.90
2022-09-27T18:05:18.369Z,1.25
2022-09-27T18:07:47.585Z,1.40
2022-09-27T18:10:16.720Z,0.60
2022-09-27T18:12:44.544Z,0.75
2022-09-27T18:15:12.623Z,0.73
2022-09-27T18:17:40.692Z,0.90
2022-09-27T18:20:09.327Z,0.70
2022-09-27T18:38:28.726Z,0.75
2022-09-27T19:59:35.465Z,0.03
2022-09-27T20:02:03.983Z,0.10
2022-09-27T20:11:06.187Z,0.10
2022-09-27T20:13:45.359Z,0.00
2022-09-27T20:16:32.392Z,0.10
2022-09-27T20:19:02.675Z,0.00
2022-09-27T20:24:42.981Z,0.10
2022-09-27T20:27:11.837Z,0.00
2022-09-27T20:29:41.232Z,0.10
2022-09-27T20:32:26.693Z,0.10
2022-09-27T20:38:11.663Z,0.10
2022-09-27T20:40:57.650Z,0.10
2022-09-27T20:46:21.264Z,1.85
2022-09-27T20:48:53.214Z,0.10
2022-09-27T20:51:32.866Z,0.00
2022-09-27T20:54:03.414Z,0.10
2022-09-27T20:56:33.732Z,0.00
2022-09-27T21:02:02.420Z,0.00
2022-09-27T21:04:31.622Z,0.10
2022-09-27T21:10:13.629Z,0.05
2022-09-27T21:15:44.676Z,0.00
2022-09-27T21:18:14.722Z,0.00
2022-09-27T21:20:45.059Z,0.10
2022-09-27T21:23:12.896Z,0.10
2022-09-27T21:25:43.021Z,0.00
2022-09-27T21:28:10.856Z,0.05
2022-09-27T21:30:38.729Z,0.10
2022-09-27T21:33:06.560Z,0.10
2022-09-27T21:38:36.885Z,0.08
2022-09-27T21:44:06.192Z,0.10
2022-09-27T21:46:34.449Z,0.50
2022-09-27T21:49:05.313Z,0.05
2022-09-27T21:51:36.469Z,0.05
2022-09-27T21:54:06.753Z,0.00
2022-09-27T21:56:37.466Z,0.10
2022-09-27T22:02:09.453Z,0.10
2022-09-27T22:10:44.461Z,0.00
2022-09-27T22:13:12.870Z,0.10
2022-09-27T22:15:46.814Z,0.00
2022-09-27T22:18:16.310Z,0.08
2022-09-27T22:20:44.317Z,0.00
2022-09-27T22:23:12.220Z,0.00
2022-09-27T22:25:40.217Z,0.10
2022-09-27T22:28:08.583Z,0.00
2022-09-27T22:30:50.479Z,0.05
2022-09-27T22:33:19.978Z,0.10
2022-09-27T22:35:48.191Z,0.00
2022-09-27T22:38:48.697Z,0.10
2022-09-27T22:41:17.156Z,0.10
2022-09-27T22:43:58.375Z,0.10
2022-09-27T22:46:26.669Z,0.10
2022-09-27T22:48:56.464Z,0.20
2022-09-27T22:51:24.266Z,0.00
2022-09-27T22:53:52.100Z,0.00
2022-09-27T22:59:32.844Z,0.10
2022-09-27T23:02:00.679Z,0.10
2022-09-27T23:04:29.861Z,0.10
2022-09-27T23:06:58.167Z,0.00
2022-09-27T23:09:26.834Z,0.10
2022-09-27T23:11:55.680Z,0.30
2022-09-27T23:14:23.679Z,0.00
2022-09-27T23:16:51.847Z,0.00
2022-09-27T23:22:22.666Z,0.90
2022-09-27T23:30:40.532Z,0.10
2022-09-27T23:33:08.957Z,0.00
2022-09-27T23:35:39.205Z,0.20
2022-09-27T23:38:08.406Z,0.10
2022-09-27T23:40:36.850Z,0.10
2022-09-27T23:43:04.745Z,0.05
2022-09-27T23:45:33.416Z,0.08
2022-09-27T23:48:02.675Z,0.10
2022-09-27T23:50:32.365Z,0.10
2022-09-27T23:53:00.643Z,0.10
2022-09-27T23:55:29.886Z,0.05
2022-09-27T23:57:57.743Z,0.10
